createdAt,value
2019-06-01T00:00:36.303Z,22.20
2019-06-01T00:03:02.608Z,22.20
2019-06-01T00:05:28.991Z,22.20
2019-06-01T00:07:55.227Z,22.20
2019-06-01T00:10:21.691Z,22.20
2019-06-01T00:12:48.095Z,22.20
2019-06-01T00:15:14.317Z,22.20
2019-06-01T00:17:41.759Z,22.20
2019-06-01T00:20:07.017Z,22.20
2019-06-01T00:22:33.380Z,22.20
2019-06-01T00:24:59.662Z,22.20
2019-06-01T00:27:26.058Z,22.20
2019-06-01T00:29:53.931Z,22.20
2019-06-01T00:32:20.143Z,22.20
2019-06-01T00:34:47.629Z,22.20
2019-06-01T00:37:12.840Z,22.20
2019-06-01T00:39:39.271Z,22.20
2019-06-01T00:42:05.478Z,22.20
2019-06-01T00:44:31.738Z,22.20
2019-06-01T00:46:58.164Z,22.20
2019-06-01T00:49:24.595Z,22.20
2019-06-01T00:51:52.142Z,22.20
2019-06-01T00:54:17.692Z,22.20
2019-06-01T00:56:45.482Z,22.20
2019-06-01T00:59:10.527Z,22.20
2019-06-01T01:01:38.388Z,22.20
2019-06-01T01:04:04.600Z,22.10
2019-06-01T01:06:30.891Z,22.20
2019-06-01T01:08:57.112Z,22.20
2019-06-01T01:11:23.536Z,22.20
2019-06-01T01:13:51.198Z,22.20
2019-06-01T01:16:16.384Z,22.20
2019-06-01T01:18:42.598Z,22.20
2019-06-01T01:21:08.855Z,22.20
2019-06-01T01:23:35.251Z,22.20
2019-06-01T01:26:01.488Z,22.20
2019-06-01T01:28:27.732Z,22.10
2019-06-01T01:31:08.412Z,22.20
2019-06-01T01:33:20.591Z,22.10
2019-06-01T01:35:47.527Z,22.20
2019-06-01T01:38:13.486Z,22.20
2019-06-01T01:40:39.900Z,22.20
2019-06-01T01:43:06.111Z,22.20
2019-06-01T01:45:32.343Z,22.20
2019-06-01T01:47:59.229Z,22.20
2019-06-01T01:50:25.021Z,22.10
2019-06-01T01:52:52.659Z,22.20
2019-06-01T01:55:17.863Z,22.20
2019-06-01T01:57:44.120Z,22.20
2019-06-01T02:00:10.555Z,22.20
2019-06-01T02:02:36.985Z,22.20
2019-06-01T02:05:03.218Z,22.20
2019-06-01T02:07:29.613Z,22.20
2019-06-01T02:09:57.175Z,22.20
2019-06-01T02:12:22.279Z,22.20
2019-06-01T02:14:48.537Z,22.10
2019-06-01T02:17:14.765Z,22.20
2019-06-01T02:19:41.422Z,22.20
2019-06-01T02:22:09.049Z,22.20
2019-06-01T02:24:35.519Z,22.20
2019-06-01T02:27:03.218Z,22.10
2019-06-01T02:29:28.362Z,22.20
2019-06-01T02:31:54.790Z,22.20
2019-06-01T02:34:21.468Z,22.10
2019-06-01T02:36:47.881Z,22.20
2019-06-01T02:39:14.529Z,22.20
2019-06-01T02:41:40.933Z,22.10
2019-06-01T02:44:07.396Z,22.20
2019-06-01T02:46:35.708Z,22.10
2019-06-01T02:49:01.914Z,22.10
2019-06-01T02:51:26.468Z,22.10
2019-06-01T02:53:52.931Z,22.10
2019-06-01T02:56:19.581Z,22.10
2019-06-01T02:58:45.977Z,22.20
2019-06-01T03:01:12.187Z,22.10
2019-06-01T03:03:40.061Z,22.10
2019-06-01T03:06:07.628Z,22.10
2019-06-01T03:08:32.715Z,22.10
2019-06-01T03:10:59.678Z,22.10
2019-06-01T03:13:25.434Z,22.10
2019-06-01T03:15:51.818Z,22.10
2019-06-01T03:18:18.040Z,22.10
2019-06-01T03:20:44.283Z,22.10
2019-06-01T03:23:10.503Z,22.10
2019-06-01T03:25:36.967Z,22.10
2019-06-01T03:28:04.121Z,22.10
2019-06-01T03:30:29.808Z,22.10
2019-06-01T03:32:56.247Z,22.10
2019-06-01T03:35:22.460Z,22.10
2019-06-01T03:37:48.719Z,22.10
2019-06-01T03:40:23.515Z,22.10
2019-06-01T03:42:41.581Z,22.10
2019-06-01T03:45:08.078Z,22.10
2019-06-01T03:47:34.403Z,22.10
2019-06-01T03:50:00.732Z,22.10
2019-06-01T03:52:27.093Z,22.10
2019-06-01T03:54:53.403Z,22.10
2019-06-01T03:57:19.995Z,22.10
2019-06-01T03:59:46.834Z,22.10
2019-06-01T04:02:13.240Z,22.10
2019-06-01T04:04:41.115Z,22.10
2019-06-01T04:07:08.281Z,22.10
2019-06-01T04:09:33.994Z,22.10
2019-06-01T04:12:01.368Z,22.10
2019-06-01T04:14:27.062Z,22.10
2019-06-01T04:16:54.112Z,22.10
2019-06-01T04:19:20.530Z,22.10
2019-06-01T04:21:47.025Z,22.10
2019-06-01T04:24:13.648Z,22.10
2019-06-01T04:26:40.079Z,22.10
2019-06-01T04:29:06.464Z,22.10
2019-06-01T04:31:32.926Z,22.10
2019-06-01T04:33:59.338Z,22.10
2019-06-01T04:36:25.744Z,22.10
2019-06-01T04:38:52.002Z,22.10
2019-06-01T04:41:18.426Z,22.10
2019-06-01T04:43:44.888Z,22.10
2019-06-01T04:46:12.385Z,22.10
2019-06-01T04:48:37.819Z,22.10
2019-06-01T04:51:04.576Z,22.10
2019-06-01T04:53:30.594Z,22.10
2019-06-01T04:55:56.829Z,22.10
2019-06-01T04:58:23.035Z,22.10
2019-06-01T05:00:49.299Z,22.10
2019-06-01T05:03:16.358Z,22.10
2019-06-01T05:05:42.795Z,22.10
2019-06-01T05:08:09.465Z,22.10
2019-06-01T05:10:35.656Z,22.10
2019-06-01T05:13:02.076Z,22.10
2019-06-01T05:15:28.285Z,22.10
2019-06-01T05:17:54.539Z,22.10
2019-06-01T05:20:20.955Z,22.10
2019-06-01T05:22:47.380Z,22.10
2019-06-01T05:25:14.018Z,22.10
2019-06-01T05:27:40.072Z,22.10
2019-06-01T05:30:07.324Z,22.00
2019-06-01T05:32:32.925Z,22.10
2019-06-01T05:34:59.379Z,22.10
2019-06-01T05:37:25.799Z,22.10
2019-06-01T05:39:52.250Z,22.10
2019-06-01T05:42:19.030Z,22.10
2019-06-01T05:44:45.102Z,22.10
2019-06-01T05:47:12.146Z,22.10
2019-06-01T05:49:37.959Z,22.10
2019-06-01T05:52:04.193Z,22.00
2019-06-01T05:54:30.667Z,22.10
2019-06-01T05:56:57.074Z,22.00
2019-06-01T05:59:23.461Z,22.10
2019-06-01T06:01:51.358Z,22.00
2019-06-01T06:04:17.800Z,22.10
2019-06-01T06:06:45.653Z,22.00
2019-06-01T06:09:13.223Z,22.10
2019-06-01T06:11:38.320Z,22.10
2019-06-01T06:14:04.780Z,22.10
2019-06-01T06:16:31.223Z,22.00
2019-06-01T06:18:57.430Z,22.10
2019-06-01T06:21:23.845Z,22.10
2019-06-01T06:23:50.045Z,22.10
2019-06-01T06:26:17.278Z,22.10
2019-06-01T06:28:42.748Z,22.10
2019-06-01T06:31:09.191Z,22.10
2019-06-01T06:33:36.941Z,22.10
2019-06-01T06:36:02.179Z,22.10
2019-06-01T06:38:28.493Z,22.10
2019-06-01T06:40:54.917Z,22.10
2019-06-01T06:43:29.760Z,22.10
2019-06-01T06:45:47.763Z,22.10
2019-06-01T06:48:14.911Z,22.10
2019-06-01T06:50:40.413Z,22.10
2019-06-01T06:53:06.706Z,22.10
2019-06-01T06:55:33.087Z,22.10
2019-06-01T06:57:59.520Z,22.10
2019-06-01T07:00:26.889Z,22.10
2019-06-01T07:02:52.164Z,22.10
2019-06-01T07:05:19.305Z,22.10
2019-06-01T07:07:45.212Z,22.10
2019-06-01T07:10:11.472Z,22.10
2019-06-01T07:12:37.729Z,22.10
2019-06-01T07:15:04.995Z,22.10
2019-06-01T07:17:31.877Z,22.10
2019-06-01T07:19:58.142Z,22.10
2019-06-01T07:22:25.782Z,22.10
2019-06-01T07:24:51.758Z,22.10
2019-06-01T07:27:18.186Z,22.10
2019-06-01T07:29:44.600Z,22.10
2019-06-01T07:32:11.052Z,22.10
2019-06-01T07:34:41.588Z,22.10
2019-06-01T07:37:03.952Z,22.10
2019-06-01T07:39:30.324Z,22.10
2019-06-01T07:41:56.727Z,22.10
2019-06-01T07:44:23.228Z,22.10
2019-06-01T07:46:49.403Z,22.10
2019-06-01T07:49:15.652Z,22.10
2019-06-01T07:51:42.045Z,22.10
2019-06-01T07:54:09.120Z,22.10
2019-06-01T07:56:35.361Z,22.10
2019-06-01T07:59:01.833Z,22.20
2019-06-01T08:01:29.691Z,22.10
2019-06-01T08:03:55.472Z,22.10
2019-06-01T08:06:22.475Z,22.20
2019-06-01T08:08:48.388Z,22.20
2019-06-01T08:11:14.759Z,22.20
2019-06-01T08:13:42.678Z,22.10
2019-06-01T08:16:09.091Z,22.10
2019-06-01T08:18:35.508Z,22.10
2019-06-01T08:21:01.770Z,22.20
2019-06-01T08:23:28.470Z,22.20
2019-06-01T08:25:54.841Z,22.20
2019-06-01T08:28:22.298Z,22.20
2019-06-01T08:30:47.676Z,22.20
2019-06-01T08:33:13.902Z,22.20
2019-06-01T08:35:40.129Z,22.10
2019-06-01T08:38:06.359Z,22.20
2019-06-01T08:40:33.525Z,22.20
2019-06-01T08:42:59.269Z,22.20
2019-06-01T08:45:25.663Z,22.20
2019-06-01T08:47:52.092Z,22.20
2019-06-01T08:50:18.344Z,22.20
2019-06-01T08:52:44.791Z,22.20
2019-06-01T08:55:11.185Z,22.20
2019-06-01T08:57:37.450Z,22.20
2019-06-01T09:00:03.842Z,22.20
2019-06-01T09:02:30.865Z,22.20
2019-06-01T09:04:56.503Z,22.20
2019-06-01T09:07:22.777Z,22.20
2019-06-01T09:09:49.180Z,22.20
2019-06-01T09:12:15.403Z,22.20
2019-06-01T09:14:41.641Z,22.20
2019-06-01T09:17:07.894Z,22.20
2019-06-01T09:19:35.595Z,22.20
2019-06-01T09:22:00.730Z,22.20
2019-06-01T09:24:27.698Z,22.20
2019-06-01T09:26:53.633Z,22.20
2019-06-01T09:29:20.099Z,22.20
2019-06-01T09:31:46.467Z,22.20
2019-06-01T09:34:12.702Z,22.20
2019-06-01T09:36:38.955Z,22.20
2019-06-01T09:39:05.391Z,22.20
2019-06-01T09:41:32.581Z,22.20
2019-06-01T09:43:57.999Z,22.20
2019-06-01T09:46:24.289Z,22.20
2019-06-01T09:48:50.690Z,22.20
2019-06-01T09:51:16.930Z,22.20
2019-06-01T09:53:43.344Z,22.20
2019-06-01T09:56:10.427Z,22.20
2019-06-01T09:58:36.967Z,22.30
2019-06-01T10:01:03.249Z,22.20
2019-06-01T10:03:32.477Z,22.30
2019-06-01T10:06:01.850Z,22.30
2019-06-01T10:08:24.014Z,22.30
2019-06-01T10:10:50.425Z,22.30
2019-06-01T10:13:16.656Z,22.30
2019-06-01T10:15:43.101Z,22.30
2019-06-01T10:18:09.561Z,22.30
2019-06-01T10:20:36.949Z,22.30
2019-06-01T10:23:02.404Z,22.30
2019-06-01T10:25:30.231Z,22.30
2019-06-01T10:27:55.291Z,22.30
2019-06-01T10:30:21.551Z,22.30
2019-06-01T10:32:48.154Z,22.30
2019-06-01T10:35:14.568Z,22.30
2019-06-01T10:37:41.713Z,22.30
2019-06-01T10:40:07.207Z,22.30
2019-06-01T10:42:34.425Z,22.30
2019-06-01T10:44:59.892Z,22.40
2019-06-01T10:47:26.172Z,22.30
2019-06-01T10:49:52.539Z,22.30
2019-06-01T10:52:18.795Z,22.40
2019-06-01T10:54:45.195Z,22.30
2019-06-01T10:57:13.059Z,22.30
2019-06-01T10:59:40.456Z,22.30
2019-06-01T11:02:05.723Z,22.40
2019-06-01T11:04:32.773Z,22.40
2019-06-01T11:06:58.437Z,22.30
2019-06-01T11:09:24.842Z,22.40
2019-06-01T11:11:51.296Z,22.40
2019-06-01T11:14:17.690Z,22.40
2019-06-01T11:16:45.551Z,22.40
2019-06-01T11:19:11.795Z,22.40
2019-06-01T11:21:39.697Z,22.40
2019-06-01T11:24:06.094Z,22.40
2019-06-01T11:26:33.328Z,22.40
2019-06-01T11:28:58.977Z,22.40
2019-06-01T11:31:25.432Z,22.40
2019-06-01T11:33:51.840Z,22.40
2019-06-01T11:36:18.498Z,22.40
2019-06-01T11:38:45.149Z,22.40
2019-06-01T11:41:11.377Z,22.40
2019-06-01T11:43:38.631Z,22.40
2019-06-01T11:46:04.209Z,22.40
2019-06-01T11:48:30.670Z,22.40
2019-06-01T11:50:57.089Z,22.40
2019-06-01T11:53:23.531Z,22.40
2019-06-01T11:55:49.943Z,22.40
2019-06-01T11:58:16.384Z,22.50
2019-06-01T12:00:43.741Z,22.50
2019-06-01T12:03:09.682Z,22.50
2019-06-01T12:05:36.092Z,22.40
2019-06-01T12:08:02.343Z,22.50
2019-06-01T12:10:28.567Z,22.50
2019-06-01T12:12:54.960Z,22.50
2019-06-01T12:15:26.479Z,22.40
2019-06-01T12:17:49.296Z,22.40
2019-06-01T12:20:15.712Z,22.40
2019-06-01T12:22:42.954Z,22.50
2019-06-01T12:25:08.558Z,22.50
2019-06-01T12:27:37.319Z,22.50
2019-06-01T12:30:02.897Z,22.50
2019-06-01T12:32:29.311Z,22.50
2019-06-01T12:34:55.531Z,22.50
2019-06-01T12:37:36.426Z,22.50
2019-06-01T12:39:52.839Z,22.50
2019-06-01T12:42:17.520Z,22.50
2019-06-01T12:44:43.936Z,22.50
2019-06-01T12:47:10.601Z,22.50
2019-06-01T12:49:37.069Z,22.50
2019-06-01T12:52:03.457Z,22.50
2019-06-01T12:54:29.891Z,22.50
2019-06-01T12:56:56.539Z,22.50
2019-06-01T12:59:23.023Z,22.50
2019-06-01T13:01:49.399Z,22.50
2019-06-01T13:04:16.043Z,22.50
2019-06-01T13:06:42.752Z,22.60
2019-06-01T13:09:09.322Z,22.60
2019-06-01T13:11:35.713Z,22.50
2019-06-01T13:14:04.371Z,22.60
2019-06-01T13:16:28.599Z,22.50
2019-06-01T13:18:54.943Z,22.60
2019-06-01T13:21:27.905Z,22.60
2019-06-01T13:23:54.051Z,22.60
2019-06-01T13:26:20.483Z,22.60
2019-06-01T13:28:48.240Z,22.60
2019-06-01T13:31:13.552Z,22.60
2019-06-01T13:33:39.962Z,22.60
2019-06-01T13:36:06.207Z,22.60
2019-06-01T13:38:32.445Z,22.60
2019-06-01T13:40:58.878Z,22.60
2019-06-01T13:43:25.310Z,22.60
2019-06-01T13:45:52.172Z,22.60
2019-06-01T13:48:18.181Z,22.60
2019-06-01T13:50:45.590Z,22.60
2019-06-01T13:53:11.039Z,22.70
2019-06-01T13:55:38.073Z,22.70
2019-06-01T13:58:04.545Z,22.60
2019-06-01T14:00:31.051Z,22.70
2019-06-01T14:02:57.788Z,22.70
2019-06-01T14:05:23.818Z,22.70
2019-06-01T14:07:51.721Z,22.70
2019-06-01T14:10:18.146Z,22.70
2019-06-01T14:12:45.246Z,22.70
2019-06-01T14:15:10.981Z,22.70
2019-06-01T14:17:37.421Z,22.70
2019-06-01T14:20:04.479Z,22.70
2019-06-01T14:22:30.880Z,22.70
2019-06-01T14:25:12.023Z,22.70
2019-06-01T14:27:23.592Z,22.70
2019-06-01T14:29:50.288Z,22.70
2019-06-01T14:32:16.458Z,22.70
2019-06-01T14:34:42.894Z,22.70
2019-06-01T14:37:09.301Z,22.70
2019-06-01T14:39:35.509Z,22.70
2019-06-01T14:42:01.963Z,22.70
2019-06-01T14:44:28.385Z,22.70
2019-06-01T14:47:02.320Z,22.70
2019-06-01T14:49:21.082Z,22.70
2019-06-01T14:51:47.732Z,22.70
2019-06-01T14:54:14.171Z,22.80
2019-06-01T14:56:40.589Z,22.80
2019-06-01T14:59:07.019Z,22.80
2019-06-01T15:01:33.864Z,22.80
2019-06-01T15:04:00.295Z,22.80
2019-06-01T15:06:26.723Z,22.80
2019-06-01T15:09:10.546Z,22.80
2019-06-01T15:11:19.603Z,22.80
2019-06-01T15:13:46.117Z,22.80
2019-06-01T15:16:13.297Z,22.80
2019-06-01T15:18:39.700Z,22.80
2019-06-01T15:21:05.899Z,22.80
2019-06-01T15:23:32.384Z,22.80
2019-06-01T15:25:59.019Z,22.80
2019-06-01T15:28:25.660Z,22.80
2019-06-01T15:30:52.847Z,22.80
2019-06-01T15:33:18.506Z,22.80
2019-06-01T15:35:44.735Z,22.80
2019-06-01T15:38:11.268Z,22.80
2019-06-01T15:40:37.595Z,22.80
2019-06-01T15:43:04.265Z,22.80
2019-06-01T15:45:30.683Z,22.80
2019-06-01T15:47:57.802Z,22.80
2019-06-01T15:50:23.531Z,22.80
2019-06-01T15:52:50.012Z,22.80
2019-06-01T15:55:16.412Z,22.80
2019-06-01T15:57:42.599Z,22.80
2019-06-01T16:00:08.872Z,22.80
2019-06-01T16:02:35.314Z,22.80
2019-06-01T16:05:01.754Z,22.80
2019-06-01T16:07:28.194Z,22.80
2019-06-01T16:09:55.397Z,22.90
2019-06-01T16:12:21.069Z,22.90
2019-06-01T16:14:47.453Z,22.90
2019-06-01T16:17:13.689Z,22.90
2019-06-01T16:19:40.131Z,22.90
2019-06-01T16:22:06.572Z,22.90
2019-06-01T16:24:32.988Z,22.90
2019-06-01T16:27:00.158Z,22.90
2019-06-01T16:29:25.886Z,22.90
2019-06-01T16:31:52.518Z,22.90
2019-06-01T16:34:20.567Z,22.90
2019-06-01T16:36:46.792Z,22.90
2019-06-01T16:39:13.219Z,22.90
2019-06-01T16:41:39.688Z,22.90
2019-06-01T16:44:05.933Z,22.90
2019-06-01T16:46:32.350Z,22.90
2019-06-01T16:48:59.509Z,22.90
2019-06-01T16:51:25.192Z,22.90
2019-06-01T16:53:51.444Z,22.90
2019-06-01T16:56:17.850Z,22.90
2019-06-01T16:58:44.940Z,22.90
2019-06-01T17:01:11.336Z,22.90
2019-06-01T17:03:37.555Z,23.00
2019-06-01T17:06:04.795Z,23.00
2019-06-01T17:08:30.232Z,23.00
2019-06-01T17:10:56.723Z,23.00
2019-06-01T17:13:23.339Z,23.00
2019-06-01T17:15:49.720Z,23.00
2019-06-01T17:18:17.839Z,23.00
2019-06-01T17:20:44.227Z,22.90
2019-06-01T17:23:26.241Z,23.00
2019-06-01T17:25:36.781Z,23.00
2019-06-01T17:28:05.086Z,23.00
2019-06-01T17:30:30.401Z,23.00
2019-06-01T17:32:58.124Z,23.00
2019-06-01T17:35:23.228Z,23.00
2019-06-01T17:37:49.484Z,23.00
2019-06-01T17:40:15.944Z,23.00
2019-06-01T17:42:42.336Z,23.00
2019-06-01T17:45:09.606Z,23.00
2019-06-01T17:47:35.202Z,23.00
2019-06-01T17:50:02.620Z,23.00
2019-06-01T17:52:28.070Z,23.00
2019-06-01T17:54:54.315Z,23.00
2019-06-01T17:57:20.744Z,23.00
2019-06-01T17:59:47.795Z,23.00
2019-06-01T18:02:14.014Z,23.10
2019-06-01T18:04:40.247Z,23.00
2019-06-01T18:07:07.905Z,23.00
2019-06-01T18:09:33.273Z,23.00
2019-06-01T18:11:59.528Z,23.00
2019-06-01T18:14:25.803Z,23.00
2019-06-01T18:16:52.235Z,23.10
2019-06-01T18:19:18.873Z,23.10
2019-06-01T18:21:45.272Z,23.10
2019-06-01T18:24:12.622Z,23.10
2019-06-01T18:26:37.963Z,23.10
2019-06-01T18:29:04.621Z,23.10
2019-06-01T18:31:31.220Z,23.10
2019-06-01T18:33:57.668Z,23.00
2019-06-01T18:36:24.105Z,23.10
2019-06-01T18:38:50.753Z,23.10
2019-06-01T18:41:20.033Z,23.10
2019-06-01T18:43:43.608Z,23.10
2019-06-01T18:46:10.179Z,23.10
2019-06-01T18:48:36.476Z,23.10
2019-06-01T18:51:04.011Z,23.10
2019-06-01T18:53:29.558Z,23.10
2019-06-01T18:55:55.979Z,23.10
2019-06-01T18:58:22.475Z,23.10
2019-06-01T19:00:49.080Z,23.10
2019-06-01T19:03:15.614Z,23.10
2019-06-01T19:05:45.809Z,23.10
2019-06-01T19:08:13.543Z,23.10
2019-06-01T19:10:38.672Z,23.10
2019-06-01T19:13:05.652Z,23.10
2019-06-01T19:15:31.525Z,23.10
2019-06-01T19:17:57.771Z,23.10
2019-06-01T19:20:24.188Z,23.10
2019-06-01T19:22:52.007Z,23.10
2019-06-01T19:25:18.304Z,23.10
2019-06-01T19:27:44.731Z,23.10
2019-06-01T19:30:11.176Z,23.10
2019-06-01T19:32:37.577Z,23.10
2019-06-01T19:35:03.843Z,23.10
2019-06-01T19:37:30.240Z,23.10
2019-06-01T19:39:56.512Z,23.10
2019-06-01T19:42:22.940Z,23.10
2019-06-01T19:44:49.347Z,23.10
2019-06-01T19:47:16.137Z,23.10
2019-06-01T19:49:43.989Z,23.10
2019-06-01T19:52:08.855Z,23.10
2019-06-01T19:54:35.062Z,23.10
2019-06-01T19:57:01.307Z,23.10
2019-06-01T19:59:27.545Z,23.10
2019-06-01T20:01:54.003Z,23.10
2019-06-01T20:04:20.432Z,23.10
2019-06-01T20:06:47.078Z,23.10
2019-06-01T20:09:13.515Z,23.10
2019-06-01T20:11:39.902Z,23.10
2019-06-01T20:14:06.353Z,23.10
2019-06-01T20:16:32.840Z,23.10
2019-06-01T20:18:59.242Z,23.20
2019-06-01T20:21:26.697Z,23.20
2019-06-01T20:23:53.099Z,23.10
2019-06-01T20:26:19.557Z,23.20
2019-06-01T20:28:45.795Z,23.10
2019-06-01T20:31:13.634Z,23.20
2019-06-01T20:33:38.835Z,23.10
2019-06-01T20:36:05.064Z,23.20
2019-06-01T20:38:31.477Z,23.10
2019-06-01T20:40:57.793Z,23.10
2019-06-01T20:43:24.177Z,23.20
2019-06-01T20:45:50.580Z,23.20
2019-06-01T20:48:17.082Z,23.20
2019-06-01T20:50:43.348Z,23.20
2019-06-01T20:53:09.585Z,23.20
2019-06-01T20:55:36.033Z,23.20
2019-06-01T20:58:02.450Z,23.20
2019-06-01T21:00:31.826Z,23.20
2019-06-01T21:02:55.504Z,23.20
2019-06-01T21:05:22.145Z,23.10
2019-06-01T21:07:48.183Z,23.20
2019-06-01T21:10:15.997Z,23.20
2019-06-01T21:12:45.644Z,23.20
2019-06-01T21:15:08.095Z,23.10
2019-06-01T21:17:34.532Z,23.20
2019-06-01T21:20:04.758Z,23.20
2019-06-01T21:22:28.048Z,23.10
2019-06-01T21:24:54.490Z,23.10
2019-06-01T21:27:20.881Z,23.20
2019-06-01T21:29:47.107Z,23.20
2019-06-01T21:32:13.320Z,23.20
2019-06-01T21:34:39.556Z,23.20
2019-06-01T21:37:05.765Z,23.10
2019-06-01T21:39:32.065Z,23.10
2019-06-01T21:41:58.475Z,23.10
2019-06-01T21:44:25.671Z,23.20
2019-06-01T21:46:51.147Z,23.10
2019-06-01T21:49:17.740Z,23.20
2019-06-01T21:51:44.227Z,23.20
2019-06-01T21:54:10.643Z,23.10
2019-06-01T21:56:37.080Z,23.10
2019-06-01T21:59:03.515Z,23.20
2019-06-01T22:01:29.946Z,23.20
2019-06-01T22:03:56.397Z,23.20
2019-06-01T22:06:23.399Z,23.20
2019-06-01T22:08:52.728Z,23.20
2019-06-01T22:11:15.471Z,23.20
2019-06-01T22:13:41.715Z,23.20
2019-06-01T22:16:07.936Z,23.20
2019-06-01T22:18:34.179Z,23.20
2019-06-01T22:21:00.412Z,23.20
2019-06-01T22:23:28.043Z,23.20
2019-06-01T22:25:53.064Z,23.20
2019-06-01T22:28:20.311Z,23.20
2019-06-01T22:30:45.932Z,23.20
2019-06-01T22:33:12.332Z,23.20
2019-06-01T22:35:38.565Z,23.20
2019-06-01T22:38:04.804Z,23.20
2019-06-01T22:40:31.488Z,23.20
2019-06-01T22:42:57.550Z,23.20
2019-06-01T22:45:24.647Z,23.20
2019-06-01T22:47:50.355Z,23.20
2019-06-01T22:50:16.786Z,23.20
2019-06-01T22:52:43.221Z,23.20
2019-06-01T22:55:09.611Z,23.20
2019-06-01T22:57:36.089Z,23.20
2019-06-01T23:00:02.511Z,23.20
2019-06-01T23:02:29.843Z,23.20
2019-06-01T23:04:55.345Z,23.20
2019-06-01T23:07:22.953Z,23.20
2019-06-01T23:09:48.665Z,23.20
2019-06-01T23:12:14.906Z,23.10
2019-06-01T23:14:41.112Z,23.20
2019-06-01T23:17:07.536Z,23.20
2019-06-01T23:19:33.944Z,23.10
2019-06-01T23:22:00.185Z,23.20
2019-06-01T23:24:28.144Z,23.10
2019-06-01T23:26:53.105Z,23.20
2019-06-01T23:29:19.496Z,23.20
2019-06-01T23:31:45.747Z,23.20
2019-06-01T23:34:12.385Z,23.20
2019-06-01T23:36:39.025Z,23.20
2019-06-01T23:39:05.476Z,23.20
2019-06-01T23:41:32.926Z,23.20
2019-06-01T23:44:10.857Z,23.20
2019-06-01T23:46:24.932Z,23.20
2019-06-01T23:48:50.968Z,23.20
2019-06-01T23:51:17.211Z,23.20
2019-06-01T23:53:43.854Z,23.20
2019-06-01T23:56:10.306Z,23.20
2019-06-01T23:58:36.685Z,23.20
